Time;durP1;ratioP1;P1;durP2;ratioP2;P2;SDS_P1;SDS_P2;PMS_P1;PMS_P2;Temp;Humidity;BMP_temperature;BMP_pressure;BME280_temperature;BME280_humidity;BME280_pressure;Samples;Min_cycle;Max_cycle;Signal;HPM_P1;HPM_P2
2022/04/14 00:01:06;;;;;;;;;10.00;9.00;;;;;15.76;68.07;101428.53;4976055;28;45590;-58
2022/04/14 00:03:32;;;;;;;;;9.33;7.33;;;;;15.70;67.99;101426.25;5009212;27;46318;-57
2022/04/14 00:05:57;;;;;;;;;12.33;11.00;;;;;15.74;67.94;101430.44;5046770;27;45180;-57
2022/04/14 00:08:22;;;;;;;;;10.33;9.00;;;;;15.73;68.22;101433.22;5026842;27;45376;-57
2022/04/14 00:10:48;;;;;;;;;10.67;10.67;;;;;15.72;68.12;101429.69;4972830;28;45732;-57
2022/04/14 00:13:13;;;;;;;;;14.00;11.33;;;;;15.78;68.13;101433.81;4965407;28;46066;-57
2022/04/14 00:15:39;;;;;;;;;12.00;9.00;;;;;15.77;67.92;101441.00;4974173;28;45860;-57
2022/04/14 00:18:04;;;;;;;;;8.67;8.67;;;;;15.74;68.35;101432.25;4974885;28;45867;-58
2022/04/14 00:20:30;;;;;;;;;9.67;9.67;;;;;15.70;68.54;101436.97;4974088;28;45537;-58
2022/04/14 00:22:55;;;;;;;;;11.00;10.00;;;;;15.63;68.60;101435.66;4973260;28;47198;-59
2022/04/14 00:25:21;;;;;;;;;11.67;10.00;;;;;15.61;68.71;101433.03;4971948;28;45529;-59
2022/04/14 00:27:46;;;;;;;;;12.33;11.00;;;;;15.65;68.49;101433.72;4974353;28;45801;-58
2022/04/14 00:30:12;;;;;;;;;6.67;6.67;;;;;15.69;68.46;101435.25;4972157;28;45541;-58
2022/04/14 00:32:38;;;;;;;;;9.67;9.00;;;;;15.69;68.07;101435.25;4974318;28;46203;-58
2022/04/14 00:35:03;;;;;;;;;11.33;10.67;;;;;15.59;68.98;101431.38;4975526;28;45360;-58
2022/04/14 00:37:29;;;;;;;;;12.00;12.00;;;;;15.55;68.97;101432.56;4974872;28;45261;-58
2022/04/14 00:39:54;;;;;;;;;10.33;9.00;;;;;15.53;68.77;101423.75;4974235;27;45984;-58
2022/04/14 00:42:20;;;;;;;;;10.67;9.67;;;;;15.57;68.74;101420.75;4974712;28;46067;-56
2022/04/14 00:44:45;;;;;;;;;12.00;12.00;;;;;15.55;68.75;101427.19;4974275;28;45349;-58
2022/04/14 00:47:12;;;;;;;;;11.33;10.00;;;;;15.55;68.86;101427.19;4973900;28;45607;-57
2022/04/14 00:49:38;;;;;;;;;17.67;13.33;;;;;15.52;68.34;101427.38;4964034;28;45544;-58
2022/04/14 00:52:04;;;;;;;;;11.67;10.00;;;;;15.50;69.26;101430.16;4974410;28;45423;-58
2022/04/14 00:54:30;;;;;;;;;13.33;13.33;;;;;15.49;69.09;101430.25;4974361;27;45393;-58
2022/04/14 00:57:01;;;;;;;;;11.00;11.00;;;;;15.42;69.33;101421.75;4974540;28;45551;-61
2022/04/14 00:59:27;;;;;;;;;14.67;12.67;;;;;15.49;68.87;101422.19;4974845;28;45528;-57
2022/04/14 01:01:56;;;;;;;;;13.00;13.00;;;;;15.49;69.35;101432.91;4976689;28;46220;-58
2022/04/14 01:04:22;;;;;;;;;11.33;11.33;;;;;15.45;69.37;101426.03;4993044;28;45512;-57
2022/04/14 01:06:48;;;;;;;;;11.67;10.00;;;;;15.50;69.12;101429.31;4990373;28;45459;-57
2022/04/14 01:09:16;;;;;;;;;10.00;10.00;;;;;15.52;69.32;101424.72;4975499;28;45646;-59
2022/04/14 01:11:44;;;;;;;;;14.67;13.00;;;;;15.50;69.36;101424.81;4988386;27;45326;-58
2022/04/14 01:14:31;;;;;;;;;12.00;11.67;;;;;15.46;69.76;101428.63;4974663;28;45389;-59
2022/04/14 01:17:02;;;;;;;;;12.00;12.00;;;;;15.44;69.33;101416.28;4972513;28;45436;-59
2022/04/14 01:19:28;;;;;;;;;12.00;12.00;;;;;15.51;69.20;101428.34;4974265;28;45321;-59
2022/04/14 01:22:15;;;;;;;;;13.00;13.00;;;;;15.53;69.50;101435.34;4968003;28;45564;-57
2022/04/14 01:24:41;;;;;;;;;13.33;11.33;;;;;15.51;69.56;101431.03;5017143;28;45436;-56
2022/04/14 01:27:07;;;;;;;;;12.33;10.33;;;;;15.57;69.30;101436.00;4979798;27;45529;-59
2022/04/14 01:29:32;;;;;;;;;9.67;9.33;;;;;15.56;69.33;101426.22;4992824;28;45691;-58
2022/04/14 01:32:01;;;;;;;;;11.67;11.67;;;;;15.59;68.85;101434.06;4971720;28;45603;-57
2022/04/14 01:34:29;;;;;;;;;12.00;11.00;;;;;15.58;69.17;101437.72;4972507;28;45332;-58
2022/04/14 01:37:00;;;;;;;;;11.67;11.67;;;;;15.60;68.70;101441.19;4973145;28;45379;-59
2022/04/14 01:39:27;;;;;;;;;16.67;13.00;;;;;15.61;68.84;101441.09;4965403;28;45568;-57
2022/04/14 01:41:53;;;;;;;;;15.33;14.67;;;;;15.59;68.43;101434.97;4972476;28;46333;-58
2022/04/14 01:44:18;;;;;;;;;16.67;11.00;;;;;15.63;68.93;101432.97;4972207;28;45710;-57
2022/04/14 01:46:44;;;;;;;;;12.33;12.33;;;;;15.64;68.66;101442.72;4973924;28;45550;-57
2022/04/14 01:49:10;;;;;;;;;7.67;7.67;;;;;15.54;68.96;101430.81;4988304;28;45647;-56
2022/04/14 01:51:36;;;;;;;;;14.33;13.33;;;;;15.57;69.04;101433.31;4973684;28;45399;-56
2022/04/14 01:54:02;;;;;;;;;12.67;12.00;;;;;15.50;69.28;101414.09;4973253;28;45494;-58
2022/04/14 01:56:27;;;;;;;;;13.67;13.33;;;;;15.46;69.44;101409.84;4966860;28;45551;-59
2022/04/14 01:58:53;;;;;;;;;13.00;13.00;;;;;15.47;69.28;101416.06;4979531;28;45501;-59
2022/04/14 02:01:19;;;;;;;;;13.67;13.00;;;;;15.46;69.15;101417.03;4973364;28;46351;-59
2022/04/14 02:03:44;;;;;;;;;18.00;14.00;;;;;15.48;69.67;101425.84;4978266;28;45382;-59
2022/04/14 02:06:10;;;;;;;;;13.00;13.00;;;;;15.50;69.88;101429.31;4973531;28;45433;-58
2022/04/14 02:08:36;;;;;;;;;12.00;12.00;;;;;15.47;69.63;101429.47;5006412;28;45521;-59
2022/04/14 02:11:04;;;;;;;;;14.67;13.00;;;;;15.47;69.89;101426.81;4972483;28;46157;-57
2022/04/14 02:13:31;;;;;;;;;20.00;16.00;;;;;15.46;69.41;101422.41;4971617;28;45540;-58
2022/04/14 02:15:57;;;;;;;;;10.00;7.00;;;;;15.46;69.70;101425.09;4973221;28;45442;-58
2022/04/14 02:18:22;;;;;;;;;14.67;14.67;;;;;15.46;69.76;101427.75;4973951;27;45287;-58
2022/04/14 02:20:48;;;;;;;;;14.00;12.67;;;;;15.48;69.49;101431.19;4973098;28;46271;-58
2022/04/14 02:23:13;;;;;;;;;13.67;12.00;;;;;15.47;69.68;101424.13;4972623;28;45524;-57
2022/04/14 02:25:39;;;;;;;;;16.33;12.00;;;;;15.46;69.72;101417.03;4971400;28;45545;-58
2022/04/14 02:28:04;;;;;;;;;14.67;14.67;;;;;15.48;69.60;101424.03;4973044;28;45563;-58
2022/04/14 02:30:30;;;;;;;;;15.00;13.67;;;;;15.46;69.63;101420.59;4967939;28;45451;-57
2022/04/14 02:32:56;;;;;;;;;13.67;12.67;;;;;15.44;69.85;101417.13;4971007;28;45835;-57
2022/04/14 02:35:21;;;;;;;;;13.67;12.67;;;;;15.49;69.75;101424.88;4972860;27;45338;-57
2022/04/14 02:37:47;;;;;;;;;19.67;15.00;;;;;15.49;69.83;101422.19;4972805;28;45238;-58
2022/04/14 02:40:13;;;;;;;;;15.67;14.33;;;;;15.46;70.02;101425.94;4971574;28;45391;-58
2022/04/14 02:42:40;;;;;;;;;12.33;12.33;;;;;15.39;69.67;101410.38;4973801;28;45806;-57
2022/04/14 02:45:06;;;;;;;;;15.67;14.33;;;;;15.39;69.49;101418.41;4974704;28;45354;-58
2022/04/14 02:47:31;;;;;;;;;13.67;13.00;;;;;15.36;69.65;101408.72;4975779;27;45445;-57
2022/04/14 02:49:57;;;;;;;;;14.67;14.33;;;;;15.48;69.85;101428.53;4975693;28;46099;-59
2022/04/14 02:52:22;;;;;;;;;17.33;15.67;;;;;15.42;69.67;101426.25;4974787;28;45460;-57
2022/04/14 02:54:47;;;;;;;;;13.00;13.00;;;;;15.46;70.14;101439.34;4975645;27;45438;-57
2022/04/14 02:57:13;;;;;;;;;16.33;14.00;;;;;15.46;69.97;101428.63;4976529;28;45511;-58
2022/04/14 02:59:38;;;;;;;;;16.00;14.67;;;;;15.43;70.15;101433.31;4976026;28;45374;-57
2022/04/14 03:02:04;;;;;;;;;12.67;12.67;;;;;15.30;70.13;101414.47;4976187;28;45313;-57
2022/04/14 03:04:30;;;;;;;;;14.33;14.33;;;;;15.35;70.63;101440.00;4975557;28;45519;-64
2022/04/14 03:06:58;;;;;;;;;17.00;17.00;;;;;15.34;70.59;101432.94;4975988;28;45203;-62
2022/04/14 03:09:23;;;;;;;;;18.67;15.00;;;;;15.29;70.35;101432.38;4990058;28;47252;-58
2022/04/14 03:11:49;;;;;;;;;16.67;14.33;;;;;15.15;71.98;101439.53;4976455;28;45428;-57
2022/04/14 03:14:15;;;;;;;;;14.00;14.00;;;;;15.03;72.38;101460.78;4960018;28;45379;-57
2022/04/14 03:16:40;;;;;;;;;21.33;19.67;;;;;14.77;72.41;101433.84;4972587;28;45529;-59
2022/04/14 03:19:06;;;;;;;;;22.33;17.67;;;;;14.94;72.25;101447.91;4975256;28;45439;-57
2022/04/14 03:21:31;;;;;;;;;16.33;15.67;;;;;14.93;71.85;101439.97;4975708;28;45260;-56
2022/04/14 03:23:56;;;;;;;;;23.00;22.67;;;;;14.92;71.49;101446.31;4949903;28;45888;-62
2022/04/14 03:26:22;;;;;;;;;21.33;19.67;;;;;14.92;71.61;101446.31;4975356;28;45627;-59
2022/04/14 03:28:47;;;;;;;;;22.33;21.67;;;;;14.86;71.49;101434.16;4975557;28;45326;-60
2022/04/14 03:31:12;;;;;;;;;21.67;18.33;;;;;14.83;71.74;101450.38;4974541;28;45457;-59
2022/04/14 03:33:38;;;;;;;;;19.33;18.67;;;;;14.72;72.22;101453.72;4975228;28;45760;-59
2022/04/14 03:36:04;;;;;;;;;30.00;22.00;;;;;14.53;72.20;101422.78;4974056;28;45421;-59
2022/04/14 03:38:30;;;;;;;;;34.00;23.00;;;;;14.67;72.31;101445.09;4975718;28;45304;-60
2022/04/14 03:40:56;;;;;;;;;24.33;22.33;;;;;14.60;73.11;101456.28;4964289;28;45602;-59
2022/04/14 03:43:21;;;;;;;;;27.00;24.00;;;;;14.55;73.45;101466.38;4974178;28;45438;-58
2022/04/14 03:45:47;;;;;;;;;22.33;22.33;;;;;14.40;73.25;101457.41;4974759;28;45463;-59
2022/04/14 03:48:12;;;;;;;;;29.75;25.75;;;;;14.29;73.39;101449.13;4973887;28;47619;-58
2022/04/14 03:50:38;;;;;;;;;25.33;24.67;;;;;14.41;73.46;101464.47;4974763;28;45310;-58
2022/04/14 03:53:03;;;;;;;;;31.75;25.25;;;;;14.26;73.58;101449.31;4975034;28;45330;-58
2022/04/14 03:55:29;;;;;;;;;33.00;29.00;;;;;14.27;73.76;101451.88;4973926;28;45170;-57
2022/04/14 03:57:54;;;;;;;;;32.00;27.75;;;;;14.39;73.63;101474.41;4978543;28;45545;-60
2022/04/14 04:00:20;;;;;;;;;28.67;26.33;;;;;14.36;74.01;101472.78;4966589;28;45484;-59
2022/04/14 04:02:45;;;;;;;;;34.33;31.00;;;;;14.32;73.46;101459.63;4963452;28;45493;-59
2022/04/14 04:05:11;;;;;;;;;25.67;25.33;;;;;14.39;72.67;101469.91;4993014;28;45476;-57
2022/04/14 04:07:37;;;;;;;;;25.67;24.67;;;;;14.42;73.31;101468.88;4974519;28;46093;-57
2022/04/14 04:10:03;;;;;;;;;30.67;26.00;;;;;14.39;73.17;101469.91;4974637;28;45309;-61
2022/04/14 04:12:28;;;;;;;;;28.67;25.33;;;;;14.37;73.28;101460.25;4975078;28;45293;-59
2022/04/14 04:14:54;;;;;;;;;30.75;30.75;;;;;14.33;73.20;101453.38;4974618;28;45525;-57
2022/04/14 04:17:19;;;;;;;;;34.75;32.50;;;;;14.38;72.95;101452.13;4971791;28;46095;-57
2022/04/14 04:19:45;;;;;;;;;31.75;29.00;;;;;14.32;73.14;101438.22;4979695;28;45336;-56
2022/04/14 04:22:10;;;;;;;;;22.00;18.50;;;;;14.33;73.06;101450.69;4972373;28;45424;-58
2022/04/14 04:24:36;;;;;;;;;29.67;25.67;;;;;14.36;72.81;101451.38;4975003;28;45164;-60
2022/04/14 04:27:02;;;;;;;;;30.00;28.67;;;;;14.33;72.82;101450.69;4974131;28;45437;-56
2022/04/14 04:29:28;;;;;;;;;34.00;31.00;;;;;14.39;72.96;101455.66;4984607;28;45483;-57
2022/04/14 04:31:54;;;;;;;;;37.00;33.50;;;;;14.22;73.76;101461.16;4975114;28;45361;-57
2022/04/14 04:34:19;;;;;;;;;30.50;30.50;;;;;14.20;73.49;101461.25;4992275;28;45365;-57
2022/04/14 04:36:44;;;;;;;;;36.00;31.25;;;;;14.22;73.92;101463.81;4972676;28;46073;-57
2022/04/14 04:39:10;;;;;;;;;31.50;28.75;;;;;14.15;73.60;101458.81;4973943;28;45548;-57
2022/04/14 04:41:35;;;;;;;;;35.25;33.00;;;;;14.16;73.59;101465.00;4974463;28;45366;-59
2022/04/14 04:44:01;;;;;;;;;34.25;32.00;;;;;14.22;73.76;101480.72;4973169;28;45480;-58
2022/04/14 04:46:26;;;;;;;;;36.25;31.50;;;;;14.26;74.15;101486.75;4974065;28;45145;-56
2022/04/14 04:48:52;;;;;;;;;33.75;32.50;;;;;14.21;73.51;101484.38;4972755;28;45447;-57
2022/04/14 04:51:17;;;;;;;;;32.50;31.50;;;;;14.12;74.46;101488.41;4974560;28;45444;-57
2022/04/14 04:53:43;;;;;;;;;35.75;31.25;;;;;14.10;74.47;101503.69;4971569;28;45498;-57
2022/04/14 04:56:08;;;;;;;;;30.75;30.75;;;;;14.08;74.54;101494.91;4964611;28;46453;-58
2022/04/14 04:58:33;;;;;;;;;32.25;32.25;;;;;14.05;74.51;101492.38;4955940;28;45308;-59
2022/04/14 05:00:59;;;;;;;;;35.00;30.75;;;;;13.99;74.06;101481.16;4975278;28;45487;-57
2022/04/14 05:03:24;;;;;;;;;33.25;30.00;;;;;14.13;74.01;101495.50;4999342;27;45417;-56
2022/04/14 05:05:50;;;;;;;;;33.00;31.75;;;;;14.13;73.83;101500.84;4976352;27;45469;-56
2022/04/14 05:08:15;;;;;;;;;32.50;32.25;;;;;14.09;74.45;101493.94;4970299;28;45545;-58
2022/04/14 05:10:41;;;;;;;;;29.75;26.50;;;;;14.16;74.00;101497.97;4973519;28;45394;-57
2022/04/14 05:13:07;;;;;;;;;32.25;30.25;;;;;14.18;73.96;101496.06;4974549;28;45428;-57
2022/04/14 05:15:33;;;;;;;;;38.50;32.50;;;;;14.11;74.10;101486.69;4974492;28;46017;-57
2022/04/14 05:17:59;;;;;;;;;38.25;33.25;;;;;13.94;73.86;101460.03;4974280;28;45227;-57
2022/04/14 05:20:24;;;;;;;;;35.75;31.25;;;;;14.11;74.41;101493.84;4969896;27;45470;-55
2022/04/14 05:22:50;;;;;;;;;33.00;30.75;;;;;14.08;74.64;101502.91;4996601;28;45489;-56
2022/04/14 05:25:15;;;;;;;;;34.25;30.75;;;;;14.06;74.78;101498.56;4978808;28;45515;-57
2022/04/14 05:27:42;;;;;;;;;35.50;32.00;;;;;13.86;74.44;101472.97;4991365;28;45384;-56
2022/04/14 05:30:09;;;;;;;;;36.00;30.00;;;;;14.08;74.41;101508.28;4974185;28;45536;-57
2022/04/14 05:32:39;;;;;;;;;43.67;35.00;;;;;14.07;74.57;101509.22;4973772;28;45538;-56
2022/04/14 05:35:07;;;;;;;;;31.00;30.67;;;;;14.04;74.29;101504.03;4974149;28;46227;-55
2022/04/14 05:37:32;;;;;;;;;35.00;29.67;;;;;14.01;75.17;101520.25;4971909;28;45465;-57
2022/04/14 05:39:58;;;;;;;;;36.75;35.00;;;;;14.02;75.27;101521.09;4972351;28;45406;-61
2022/04/14 05:42:23;;;;;;;;;42.00;32.75;;;;;14.01;74.54;101520.25;4968217;28;45382;-57
2022/04/14 05:44:49;;;;;;;;;35.00;29.75;;;;;13.96;74.86;101506.28;4973272;28;46174;-57
2022/04/14 05:47:14;;;;;;;;;33.25;31.75;;;;;14.06;74.28;101515.53;4987944;27;45435;-56
2022/04/14 05:49:40;;;;;;;;;37.00;30.00;;;;;14.08;74.31;101520.78;4974734;28;45804;-54
2022/04/14 05:52:06;;;;;;;;;36.00;30.00;;;;;14.08;74.24;101520.78;4972181;28;45685;-59
2022/04/14 05:54:31;;;;;;;;;35.25;31.00;;;;;14.14;73.99;101526.63;4973766;27;46684;-58
2022/04/14 05:56:57;;;;;;;;;35.25;31.00;;;;;14.14;74.47;101531.97;4973709;28;45334;-56
2022/04/14 05:59:22;;;;;;;;;31.50;31.00;;;;;14.06;74.16;101519.97;4973388;27;45373;-57
2022/04/14 06:01:47;;;;;;;;;34.75;32.50;;;;;14.11;74.12;101526.81;4965776;28;45374;-57
2022/04/14 06:04:13;;;;;;;;;37.75;34.75;;;;;14.04;74.09;101511.19;5021754;28;45321;-57
2022/04/14 06:06:39;;;;;;;;;38.25;35.00;;;;;14.03;74.66;101504.09;4984579;28;45439;-57
2022/04/14 06:09:05;;;;;;;;;37.50;32.00;;;;;14.17;74.25;101529.13;4954025;28;45893;-57
2022/04/14 06:11:31;;;;;;;;;34.25;29.50;;;;;14.11;74.12;101516.13;4972688;28;45410;-56
2022/04/14 06:13:56;;;;;;;;;38.50;35.00;;;;;14.21;73.89;101523.63;4971557;28;45466;-59
2022/04/14 06:16:22;;;;;;;;;34.00;32.50;;;;;14.22;73.88;101520.88;4972452;28;45359;-58
2022/04/14 06:18:50;;;;;;;;;40.00;33.50;;;;;14.21;74.22;101520.97;4974115;27;45391;-58
2022/04/14 06:21:16;;;;;;;;;42.00;36.50;;;;;14.12;74.37;101527.69;4976577;28;46030;-57
2022/04/14 06:23:41;;;;;;;;;34.75;34.25;;;;;14.01;75.03;101536.28;4975751;28;46224;-56
2022/04/14 06:26:07;;;;;;;;;41.75;32.75;;;;;13.94;75.09;101539.41;4976474;28;45276;-56
2022/04/14 06:28:34;;;;;;;;;40.25;36.00;;;;;13.98;75.48;101557.88;4975039;28;45372;-59
2022/04/14 06:31:01;;;;;;;;;43.25;35.75;;;;;13.98;75.16;101557.88;4976805;28;45445;-59
2022/04/14 06:33:30;;;;;;;;;40.25;37.00;;;;;14.00;75.38;101555.09;4973369;28;46156;-57
2022/04/14 06:35:55;;;;;;;;;38.75;33.75;;;;;14.14;74.35;101557.88;4978012;28;45443;-57
2022/04/14 06:38:24;;;;;;;;;40.00;34.50;;;;;14.29;73.44;101561.50;4977116;28;45235;-60
2022/04/14 06:40:52;;;;;;;;;33.00;32.75;;;;;14.35;73.22;101555.81;4971521;28;45855;-58
2022/04/14 06:43:18;;;;;;;;;30.75;29.25;;;;;14.55;72.97;101565.41;4970130;28;45473;-58
2022/04/14 06:45:44;;;;;;;;;37.50;32.50;;;;;14.66;72.78;101571.03;4966616;28;45496;-59
2022/04/14 06:48:09;;;;;;;;;40.50;34.50;;;;;14.62;72.58;101551.59;4973600;28;45379;-61
2022/04/14 06:50:35;;;;;;;;;49.00;40.00;;;;;14.74;72.23;101561.59;4975020;28;45471;-58
2022/04/14 06:53:01;;;;;;;;;37.00;34.25;;;;;14.83;72.61;101572.72;4969056;28;46027;-59
2022/04/14 06:55:27;;;;;;;;;34.50;32.25;;;;;14.92;72.27;101569.50;4974900;28;45742;-59
2022/04/14 06:57:53;;;;;;;;;39.00;32.67;;;;;14.98;71.27;101571.84;4975532;28;45671;-58
2022/04/14 07:00:21;;;;;;;;;41.75;34.75;;;;;15.07;70.88;101573.97;4975709;28;45212;-57
2022/04/14 07:02:52;;;;;;;;;37.50;32.50;;;;;15.12;71.53;101574.56;4975698;28;45539;-58
2022/04/14 07:05:18;;;;;;;;;33.33;32.33;;;;;15.12;71.33;101576.38;4981944;28;45258;-58
2022/04/14 07:07:44;;;;;;;;;33.25;33.25;;;;;15.10;71.36;101580.94;4972651;28;45326;-59
2022/04/14 07:10:12;;;;;;;;;40.00;34.75;;;;;15.07;71.33;101571.28;4972347;28;45361;-59
2022/04/14 07:12:38;;;;;;;;;41.00;35.00;;;;;15.11;71.36;101575.53;4975931;28;46355;-58
2022/04/14 07:15:04;;;;;;;;;39.00;34.00;;;;;15.12;71.34;101577.25;4975501;28;45527;-59
2022/04/14 07:17:30;;;;;;;;;41.33;36.33;;;;;15.16;71.04;101586.81;4974208;28;45364;-59
2022/04/14 07:19:57;;;;;;;;;39.67;37.33;;;;;15.16;70.51;101581.47;4974135;28;45235;-58
2022/04/14 07:22:22;;;;;;;;;36.75;34.25;;;;;15.20;70.92;101574.94;4957044;28;47552;-61
2022/04/14 07:24:50;;;;;;;;;40.33;36.67;;;;;15.20;70.60;101583.00;4956682;28;45421;-59
2022/04/14 07:27:20;;;;;;;;;41.33;33.67;;;;;15.17;70.15;101588.53;4971174;27;45433;-58
2022/04/14 07:29:46;;;;;;;;;41.25;34.00;;;;;15.14;70.37;101591.41;4955388;28;45438;-60
2022/04/14 07:32:13;;;;;;;;;37.25;34.00;;;;;14.99;70.29;101568.22;4955402;28;46188;-59
2022/04/14 07:34:38;;;;;;;;;35.50;34.50;;;;;14.97;70.61;101570.97;4955346;28;45299;-59
2022/04/14 07:37:04;;;;;;;;;42.25;36.25;;;;;15.01;70.72;101583.22;4975590;28;45142;-59
2022/04/14 07:39:30;;;;;;;;;53.50;39.50;;;;;15.07;70.87;101594.53;4975583;28;45598;-58
2022/04/14 07:41:55;;;;;;;;;49.00;40.00;;;;;15.01;70.16;101587.72;4954324;28;46079;-62
2022/04/14 07:44:21;;;;;;;;;37.00;32.50;;;;;15.08;70.23;101589.06;4964691;28;46906;-59
2022/04/14 07:46:46;;;;;;;;;33.75;33.75;;;;;15.09;69.96;101596.16;4962688;28;45386;-59
2022/04/14 07:49:12;;;;;;;;;44.25;36.75;;;;;15.01;69.94;101595.75;4962495;28;45473;-59
2022/04/14 07:51:37;;;;;;;;;39.25;36.00;;;;;14.95;71.10;101598.78;4967531;27;45520;-58
2022/04/14 07:54:03;;;;;;;;;38.75;34.25;;;;;14.90;70.93;101603.56;4972295;28;45480;-58
2022/04/14 07:56:28;;;;;;;;;39.00;36.00;;;;;14.96;70.76;101601.38;4973552;28;45380;-58
2022/04/14 07:58:54;;;;;;;;;40.50;36.25;;;;;15.03;70.25;101604.56;4972197;27;45476;-59
2022/04/14 08:01:19;;;;;;;;;41.00;36.25;;;;;15.09;69.94;101601.50;4970356;28;45427;-58
2022/04/14 08:03:46;;;;;;;;;34.75;32.00;;;;;15.15;70.37;101611.03;4970783;28;45477;-58
2022/04/14 08:06:13;;;;;;;;;31.00;31.00;;;;;15.08;69.65;101581.03;4971704;28;45404;-58
2022/04/14 08:08:38;;;;;;;;;32.25;30.50;;;;;15.16;68.99;101591.31;4965123;28;45335;-59
2022/04/14 08:11:04;;;;;;;;;45.33;34.67;;;;;15.23;69.46;101598.00;4967215;28;45849;-57
2022/04/14 08:13:35;;;;;;;;;33.67;31.33;;;;;15.24;68.90;101599.78;4956927;28;45317;-58
2022/04/14 08:16:04;;;;;;;;;37.75;32.25;;;;;15.33;68.60;101604.56;4968239;28;45462;-58
2022/04/14 08:18:29;;;;;;;;;33.25;32.25;;;;;15.34;68.07;101599.09;4958517;28;45533;-58
2022/04/14 08:20:57;;;;;;;;;34.67;29.33;;;;;15.40;68.18;101602.41;5025076;28;47491;-59
2022/04/14 08:23:23;;;;;;;;;31.00;29.00;;;;;15.36;67.83;101599.00;4971454;28;45414;-58
2022/04/14 08:25:48;;;;;;;;;26.67;25.00;;;;;15.35;66.89;101587.44;4963887;28;45577;-58
2022/04/14 08:28:14;;;;;;;;;35.33;29.33;;;;;15.47;66.73;101606.41;4963829;28;45625;-60
2022/04/14 08:30:42;;;;;;;;;29.33;28.00;;;;;15.52;66.38;101615.06;4986386;28;47761;-58
2022/04/14 08:33:10;;;;;;;;;26.67;25.00;;;;;15.58;66.44;101615.53;4962361;27;45479;-58
2022/04/14 08:35:36;;;;;;;;;27.00;26.67;;;;;15.69;65.86;101608.69;4956046;28;45492;-57
2022/04/14 08:38:07;;;;;;;;;37.00;31.00;;;;;15.92;66.10;101609.00;4972589;28;45357;-58
2022/04/14 08:40:41;;;;;;;;;27.67;27.00;;;;;16.23;64.85;101607.94;4973041;28;46348;-59
2022/04/14 08:43:08;;;;;;;;;36.33;29.33;;;;;16.49;63.87;101606.25;4972913;27;45387;-59
2022/04/14 08:45:36;;;;;;;;;28.33;26.33;;;;;16.80;63.59;101607.84;4973447;28;45240;-60
2022/04/14 08:48:03;;;;;;;;;21.33;21.33;;;;;17.10;62.50;101610.31;4972507;28;45357;-59
2022/04/14 08:50:30;;;;;;;;;31.33;28.67;;;;;17.37;61.39;101606.72;4974309;27;46407;-58
2022/04/14 08:52:56;;;;;;;;;33.67;31.33;;;;;17.62;61.46;101605.88;4973110;28;45422;-58
2022/04/14 08:55:22;;;;;;;;;48.00;39.00;;;;;17.87;60.63;101605.94;4987220;28;45442;-59
2022/04/14 08:57:47;;;;;;;;;28.67;27.33;;;;;18.13;59.66;101600.53;4974274;28;45161;-58
2022/04/14 09:00:18;;;;;;;;;29.33;26.33;;;;;18.31;58.67;101593.81;4957424;28;46147;-59
2022/04/14 09:02:49;;;;;;;;;24.67;23.67;;;;;18.53;58.13;101603.88;4974879;28;45327;-59
2022/04/14 09:05:19;;;;;;;;;28.00;27.00;;;;;18.76;56.33;101597.69;4975208;28;45406;-59
2022/04/14 09:07:49;;;;;;;;;27.33;25.33;;;;;18.82;56.71;101581.03;4961232;28;45585;-59
2022/04/14 09:10:15;;;;;;;;;25.00;22.67;;;;;19.16;55.52;101600.06;4972958;27;46146;-57
2022/04/14 09:12:41;;;;;;;;;30.67;28.67;;;;;19.42;54.58;101607.03;4963724;28;45764;-58
2022/04/14 09:15:07;;;;;;;;;26.33;23.67;;;;;19.64;54.20;101602.66;4971707;28;45527;-60
2022/04/14 09:17:32;;;;;;;;;26.67;26.33;;;;;19.94;54.65;101597.59;4974337;28;45652;-59
2022/04/14 09:19:58;;;;;;;;;26.33;23.33;;;;;20.03;52.62;101591.41;4974054;28;45463;-59
2022/04/14 09:22:24;;;;;;;;;23.67;21.67;;;;;20.25;52.88;101592.41;4973390;28;45356;-58
2022/04/14 09:24:55;;;;;;;;;29.00;23.00;;;;;20.64;53.54;101603.69;4974422;28;45371;-61
2022/04/14 09:27:23;;;;;;;;;24.67;23.00;;;;;20.97;49.95;101595.47;4973648;28;45475;-59
2022/04/14 09:29:49;;;;;;;;;25.67;24.00;;;;;21.21;50.33;101595.22;4974846;28;45423;-60
2022/04/14 09:32:37;;;;;;;;;25.00;24.00;;;;;21.48;49.61;101594.75;4974099;28;45284;-59
2022/04/14 09:35:18;;;;;;;;;31.67;24.00;;;;;21.84;50.31;101601.53;4974197;28;45360;-59
2022/04/14 09:37:44;;;;;;;;;22.00;20.00;;;;;22.05;48.46;101577.13;4974535;28;45384;-59
2022/04/14 09:40:11;;;;;;;;;30.00;27.67;;;;;22.30;47.40;101592.94;4973977;28;46247;-59
2022/04/14 09:42:42;;;;;;;;;15.67;15.67;;;;;22.57;47.85;101588.72;4972512;28;45363;-59
2022/04/14 09:45:21;;;;;;;;;23.67;22.00;;;;;22.70;47.58;101577.63;4973722;28;45451;-59
2022/04/14 09:47:51;;;;;;;;;22.33;22.00;;;;;22.92;45.77;101575.53;4974018;28;45619;-59
2022/04/14 09:50:36;;;;;;;;;22.00;20.67;;;;;23.05;45.99;101563.50;4973948;28;45730;-59
2022/04/14 09:53:07;;;;;;;;;21.33;20.33;;;;;23.21;46.36;101577.38;4972278;28;45500;-59
2022/04/14 09:55:38;;;;;;;;;20.67;18.00;;;;;23.19;45.94;101577.53;4973664;28;45615;-61
2022/04/14 09:58:05;;;;;;;;;20.00;17.67;;;;;23.20;44.44;101578.38;4973745;28;45312;-58
2022/04/14 10:00:44;;;;;;;;;19.33;16.67;;;;;23.06;44.61;101576.97;4973530;28;45251;-58
2022/04/14 10:03:11;;;;;;;;;17.33;16.00;;;;;23.01;45.00;101579.22;4976648;28;45295;-61
2022/04/14 10:05:36;;;;;;;;;14.75;14.50;;;;;23.01;43.91;101571.09;5075973;28;45396;-62
2022/04/14 10:08:03;;;;;;;;;16.50;14.75;;;;;23.06;44.35;101585.09;5076194;27;45584;-59
2022/04/14 10:10:28;;;;;;;;;17.67;17.33;;;;;22.97;44.00;101585.09;5076035;27;46603;-59
2022/04/14 10:13:07;;;;;;;;;17.00;16.67;;;;;22.77;44.70;101568.75;5075752;27;45527;-59
2022/04/14 10:15:38;;;;;;;;;16.00;16.00;;;;;22.62;45.25;101581.03;5076174;27;45807;-59
2022/04/14 10:18:07;;;;;;;;;18.50;16.75;;;;;22.41;43.94;101572.16;5091890;27;45386;-59
2022/04/14 10:20:34;;;;;;;;;19.33;17.00;;;;;22.05;45.07;101577.13;5075624;27;45951;-61
2022/04/14 10:23:00;;;;;;;;;20.00;17.33;;;;;21.83;45.40;101555.63;5074756;28;45256;-59
2022/04/14 10:25:27;;;;;;;;;19.00;18.00;;;;;21.50;45.56;101533.25;5076149;27;45540;-57
2022/04/14 10:27:56;;;;;;;;;16.33;16.33;;;;;21.43;45.74;101559.13;5077652;27;45889;-60
2022/04/14 10:30:23;;;;;;;;;17.33;14.67;;;;;21.29;46.87;101562.16;5077501;27;45443;-58
2022/04/14 10:32:50;;;;;;;;;17.33;17.00;;;;;21.33;46.98;101572.56;5076903;27;45334;-60
2022/04/14 10:35:17;;;;;;;;;20.00;18.00;;;;;21.37;46.76;101560.50;5076488;27;45409;-59
2022/04/14 10:37:52;;;;;;;;;17.67;16.00;;;;;21.21;46.60;101544.69;5075915;27;45539;-59
2022/04/14 10:40:18;;;;;;;;;17.33;17.00;;;;;21.33;45.58;101569.88;5091259;27;46377;-59
2022/04/14 10:42:52;;;;;;;;;17.33;17.33;;;;;21.23;46.34;101570.78;5075374;27;45455;-60
2022/04/14 10:45:22;;;;;;;;;23.00;20.33;;;;;21.04;47.20;101553.38;5076186;27;45452;-60
2022/04/14 10:47:50;;;;;;;;;17.33;17.33;;;;;21.12;46.73;101556.31;5091313;27;45305;-61
2022/04/14 10:50:33;;;;;;;;;19.00;18.67;;;;;21.14;47.14;101570.56;5075589;27;45558;-60
2022/04/14 10:53:21;;;;;;;;;20.33;16.67;;;;;21.19;46.85;101562.91;5075255;28;45227;-60
2022/04/14 10:55:50;;;;;;;;;13.00;13.00;;;;;21.26;46.20;101566.00;5062752;27;45435;-59
2022/04/14 10:58:38;;;;;;;;;13.33;13.33;;;;;21.15;45.50;101561.47;5079445;27;45447;-59
2022/04/14 11:01:04;;;;;;;;;14.33;12.33;;;;;21.15;45.69;101566.88;5019650;28;46778;-60
2022/04/14 11:03:57;;;;;;;;;16.33;16.00;;;;;21.25;45.22;101563.38;4974996;28;45239;-60
2022/04/14 11:06:41;;;;;;;;;10.00;10.00;;;;;21.38;45.01;101566.78;5057489;27;45480;-60
2022/04/14 11:09:38;;;;;;;;;13.00;9.67;;;;;21.34;44.45;101559.91;5079118;27;45204;-64